sensor_id;sensor_type;location;lat;lon;timestamp;temperature;humidity
5792;DHT22;2922;53.482;10.006;2022-08-19T00:01:26;20.00;99.90
5792;DHT22;2922;53.482;10.006;2022-08-19T00:03:52;20.00;99.90
5792;DHT22;2922;53.482;10.006;2022-08-19T00:06:18;19.90;99.90
5792;DHT22;2922;53.482;10.006;2022-08-19T00:08:44;19.90;99.90
5792;DHT22;2922;53.482;10.006;2022-08-19T00:11:10;19.90;99.90
5792;DHT22;2922;53.482;10.006;2022-08-19T00:13:35;19.90;99.90
5792;DHT22;2922;53.482;10.006;2022-08-19T00:16:01;19.80;99.90
5792;DHT22;2922;53.482;10.006;2022-08-19T00:18:27;19.80;99.90
5792;DHT22;2922;53.482;10.006;2022-08-19T00:20:53;19.80;99.90
5792;DHT22;2922;53.482;10.006;2022-08-19T00:23:19;19.80;99.90
5792;DHT22;2922;53.482;10.006;2022-08-19T00:25:45;19.80;99.90
5792;DHT22;2922;53.482;10.006;2022-08-19T00:28:11;19.80;99.90
5792;DHT22;2922;53.482;10.006;2022-08-19T00:30:36;19.80;99.90
5792;DHT22;2922;53.482;10.006;2022-08-19T00:33:02;19.80;99.90
5792;DHT22;2922;53.482;10.006;2022-08-19T00:35:28;19.80;99.90
5792;DHT22;2922;53.482;10.006;2022-08-19T00:37:54;19.80;99.90
5792;DHT22;2922;53.482;10.006;2022-08-19T00:40:20;19.80;99.90
5792;DHT22;2922;53.482;10.006;2022-08-19T00:42:46;19.80;99.90
5792;DHT22;2922;53.482;10.006;2022-08-19T00:45:15;19.70;99.90
5792;DHT22;2922;53.482;10.006;2022-08-19T00:47:42;19.70;99.90
5792;DHT22;2922;53.482;10.006;2022-08-19T00:50:09;19.70;99.90
5792;DHT22;2922;53.482;10.006;2022-08-19T00:52:42;19.70;99.90
5792;DHT22;2922;53.482;10.006;2022-08-19T00:55:13;19.60;99.90
5792;DHT22;2922;53.482;10.006;2022-08-19T00:57:53;19.60;99.90
5792;DHT22;2922;53.482;10.006;2022-08-19T01:00:22;19.60;99.90
5792;DHT22;2922;53.482;10.006;2022-08-19T01:02:49;19.50;99.90
5792;DHT22;2922;53.482;10.006;2022-08-19T01:05:18;19.50;99.90
5792;DHT22;2922;53.482;10.006;2022-08-19T01:07:46;19.50;99.90
5792;DHT22;2922;53.482;10.006;2022-08-19T01:10:17;19.50;99.90
5792;DHT22;2922;53.482;10.006;2022-08-19T01:12:45;19.50;99.90
5792;DHT22;2922;53.482;10.006;2022-08-19T01:15:15;19.50;99.90
5792;DHT22;2922;53.482;10.006;2022-08-19T01:17:42;19.50;99.90
5792;DHT22;2922;53.482;10.006;2022-08-19T01:20:15;19.50;99.90
5792;DHT22;2922;53.482;10.006;2022-08-19T01:22:46;19.40;99.90
5792;DHT22;2922;53.482;10.006;2022-08-19T01:25:14;19.40;99.90
5792;DHT22;2922;53.482;10.006;2022-08-19T01:27:43;19.40;99.90
5792;DHT22;2922;53.482;10.006;2022-08-19T01:30:13;19.40;99.90
5792;DHT22;2922;53.482;10.006;2022-08-19T01:32:39;19.40;99.90
5792;DHT22;2922;53.482;10.006;2022-08-19T01:35:05;19.40;99.90
5792;DHT22;2922;53.482;10.006;2022-08-19T01:37:45;19.40;99.90
5792;DHT22;2922;53.482;10.006;2022-08-19T01:40:12;19.30;99.90
5792;DHT22;2922;53.482;10.006;2022-08-19T01:42:39;19.30;99.90
5792;DHT22;2922;53.482;10.006;2022-08-19T01:45:05;19.30;99.90
5792;DHT22;2922;53.482;10.006;2022-08-19T01:47:36;19.20;99.90
5792;DHT22;2922;53.482;10.006;2022-08-19T01:50:06;19.20;99.90
5792;DHT22;2922;53.482;10.006;2022-08-19T01:52:31;19.20;99.90
5792;DHT22;2922;53.482;10.006;2022-08-19T01:54:57;19.20;99.90
5792;DHT22;2922;53.482;10.006;2022-08-19T01:57:23;19.20;99.90
5792;DHT22;2922;53.482;10.006;2022-08-19T01:59:49;19.20;99.90
5792;DHT22;2922;53.482;10.006;2022-08-19T02:02:15;19.20;99.90
5792;DHT22;2922;53.482;10.006;2022-08-19T02:04:41;19.20;99.90
5792;DHT22;2922;53.482;10.006;2022-08-19T02:07:07;19.20;99.90
5792;DHT22;2922;53.482;10.006;2022-08-19T02:09:34;19.20;99.90
5792;DHT22;2922;53.482;10.006;2022-08-19T02:12:00;19.20;99.90
5792;DHT22;2922;53.482;10.006;2022-08-19T02:14:26;19.10;99.90
5792;DHT22;2922;53.482;10.006;2022-08-19T02:16:51;19.10;99.90
5792;DHT22;2922;53.482;10.006;2022-08-19T02:19:17;19.00;99.90
5792;DHT22;2922;53.482;10.006;2022-08-19T02:21:42;19.00;99.90
5792;DHT22;2922;53.482;10.006;2022-08-19T02:24:09;18.90;99.90
5792;DHT22;2922;53.482;10.006;2022-08-19T02:26:34;19.00;99.90
5792;DHT22;2922;53.482;10.006;2022-08-19T02:29:00;19.10;99.90
5792;DHT22;2922;53.482;10.006;2022-08-19T02:31:26;19.10;99.90
5792;DHT22;2922;53.482;10.006;2022-08-19T02:33:54;19.10;99.90
5792;DHT22;2922;53.482;10.006;2022-08-19T02:36:21;19.10;99.90
5792;DHT22;2922;53.482;10.006;2022-08-19T02:38:47;19.10;99.90
5792;DHT22;2922;53.482;10.006;2022-08-19T02:41:20;19.00;99.90
5792;DHT22;2922;53.482;10.006;2022-08-19T02:43:46;19.10;99.90
5792;DHT22;2922;53.482;10.006;2022-08-19T02:46:20;19.10;99.90
5792;DHT22;2922;53.482;10.006;2022-08-19T02:48:51;19.00;99.90
5792;DHT22;2922;53.482;10.006;2022-08-19T02:51:20;19.00;99.90
5792;DHT22;2922;53.482;10.006;2022-08-19T02:53:46;18.90;99.90
5792;DHT22;2922;53.482;10.006;2022-08-19T02:56:11;18.90;99.90
5792;DHT22;2922;53.482;10.006;2022-08-19T02:58:38;19.00;99.90
5792;DHT22;2922;53.482;10.006;2022-08-19T03:01:03;19.00;99.90
5792;DHT22;2922;53.482;10.006;2022-08-19T03:03:29;19.00;99.90
5792;DHT22;2922;53.482;10.006;2022-08-19T03:06:12;19.00;99.90
5792;DHT22;2922;53.482;10.006;2022-08-19T03:08:41;19.10;99.90
5792;DHT22;2922;53.482;10.006;2022-08-19T03:11:16;19.10;99.90
5792;DHT22;2922;53.482;10.006;2022-08-19T03:13:42;19.10;99.90
5792;DHT22;2922;53.482;10.006;2022-08-19T03:16:08;19.10;99.90
5792;DHT22;2922;53.482;10.006;2022-08-19T03:18:34;19.10;99.90
5792;DHT22;2922;53.482;10.006;2022-08-19T03:20:59;19.10;99.90
5792;DHT22;2922;53.482;10.006;2022-08-19T03:23:25;19.10;99.90
5792;DHT22;2922;53.482;10.006;2022-08-19T03:25:52;19.10;99.90
5792;DHT22;2922;53.482;10.006;2022-08-19T03:28:19;19.10;99.90
5792;DHT22;2922;53.482;10.006;2022-08-19T03:30:57;19.10;99.90
5792;DHT22;2922;53.482;10.006;2022-08-19T03:33:24;19.10;99.90
5792;DHT22;2922;53.482;10.006;2022-08-19T03:36:17;19.10;99.90
5792;DHT22;2922;53.482;10.006;2022-08-19T03:38:46;19.00;99.90
5792;DHT22;2922;53.482;10.006;2022-08-19T03:41:16;19.00;99.90
5792;DHT22;2922;53.482;10.006;2022-08-19T03:43:43;18.90;99.90
5792;DHT22;2922;53.482;10.006;2022-08-19T03:46:14;18.90;99.90
5792;DHT22;2922;53.482;10.006;2022-08-19T03:48:41;18.90;99.90
5792;DHT22;2922;53.482;10.006;2022-08-19T03:51:14;18.90;99.90
5792;DHT22;2922;53.482;10.006;2022-08-19T03:53:40;18.80;99.90
5792;DHT22;2922;53.482;10.006;2022-08-19T03:56:09;18.80;99.90
5792;DHT22;2922;53.482;10.006;2022-08-19T03:58:35;18.80;99.90
5792;DHT22;2922;53.482;10.006;2022-08-19T04:01:00;18.80;99.90
5792;DHT22;2922;53.482;10.006;2022-08-19T04:03:26;18.80;99.90
5792;DHT22;2922;53.482;10.006;2022-08-19T04:05:54;18.80;99.90
5792;DHT22;2922;53.482;10.006;2022-08-19T04:08:20;18.80;99.90
5792;DHT22;2922;53.482;10.006;2022-08-19T04:10:47;18.70;99.90
5792;DHT22;2922;53.482;10.006;2022-08-19T04:13:14;18.70;99.90
5792;DHT22;2922;53.482;10.006;2022-08-19T04:15:41;18.80;99.90
5792;DHT22;2922;53.482;10.006;2022-08-19T04:18:08;18.80;99.90
5792;DHT22;2922;53.482;10.006;2022-08-19T04:20:43;18.70;99.90
5792;DHT22;2922;53.482;10.006;2022-08-19T04:23:09;18.70;99.90
5792;DHT22;2922;53.482;10.006;2022-08-19T04:25:40;18.70;99.90
5792;DHT22;2922;53.482;10.006;2022-08-19T04:28:07;18.60;99.90
5792;DHT22;2922;53.482;10.006;2022-08-19T04:30:47;18.60;99.90
5792;DHT22;2922;53.482;10.006;2022-08-19T04:33:14;18.60;99.90
5792;DHT22;2922;53.482;10.006;2022-08-19T04:35:43;18.60;99.90
5792;DHT22;2922;53.482;10.006;2022-08-19T04:38:11;18.60;99.90
5792;DHT22;2922;53.482;10.006;2022-08-19T04:40:44;18.60;99.90
5792;DHT22;2922;53.482;10.006;2022-08-19T04:43:29;18.60;99.90
5792;DHT22;2922;53.482;10.006;2022-08-19T04:45:55;18.50;99.90
5792;DHT22;2922;53.482;10.006;2022-08-19T04:48:21;18.50;99.90
5792;DHT22;2922;53.482;10.006;2022-08-19T04:50:52;18.50;99.90
5792;DHT22;2922;53.482;10.006;2022-08-19T04:53:24;18.50;99.90
5792;DHT22;2922;53.482;10.006;2022-08-19T04:55:49;18.60;99.90
5792;DHT22;2922;53.482;10.006;2022-08-19T04:58:15;18.50;99.90
5792;DHT22;2922;53.482;10.006;2022-08-19T05:00:41;18.50;99.90
5792;DHT22;2922;53.482;10.006;2022-08-19T05:03:07;18.50;99.90
5792;DHT22;2922;53.482;10.006;2022-08-19T05:05:33;18.50;99.90
5792;DHT22;2922;53.482;10.006;2022-08-19T05:07:59;18.40;99.90
5792;DHT22;2922;53.482;10.006;2022-08-19T05:10:25;18.40;99.90
5792;DHT22;2922;53.482;10.006;2022-08-19T05:12:50;18.50;99.90
5792;DHT22;2922;53.482;10.006;2022-08-19T05:15:16;18.40;99.90
5792;DHT22;2922;53.482;10.006;2022-08-19T05:17:42;18.40;99.90
5792;DHT22;2922;53.482;10.006;2022-08-19T05:20:27;18.40;99.90
5792;DHT22;2922;53.482;10.006;2022-08-19T05:23:12;18.30;99.90
5792;DHT22;2922;53.482;10.006;2022-08-19T05:25:40;18.30;99.90
5792;DHT22;2922;53.482;10.006;2022-08-19T05:28:06;18.40;99.90
5792;DHT22;2922;53.482;10.006;2022-08-19T05:30:32;18.40;99.90
5792;DHT22;2922;53.482;10.006;2022-08-19T05:32:59;18.40;99.90
5792;DHT22;2922;53.482;10.006;2022-08-19T05:35:25;18.30;99.90
5792;DHT22;2922;53.482;10.006;2022-08-19T05:37:50;18.30;99.90
5792;DHT22;2922;53.482;10.006;2022-08-19T05:40:19;18.30;99.90
5792;DHT22;2922;53.482;10.006;2022-08-19T05:42:44;18.40;99.90
5792;DHT22;2922;53.482;10.006;2022-08-19T05:45:10;18.40;99.90
5792;DHT22;2922;53.482;10.006;2022-08-19T05:47:36;18.40;99.90
5792;DHT22;2922;53.482;10.006;2022-08-19T05:50:03;18.40;99.90
5792;DHT22;2922;53.482;10.006;2022-08-19T05:52:29;18.40;99.90
5792;DHT22;2922;53.482;10.006;2022-08-19T05:54:55;18.30;99.90
5792;DHT22;2922;53.482;10.006;2022-08-19T05:57:21;18.30;99.90
5792;DHT22;2922;53.482;10.006;2022-08-19T05:59:46;18.40;99.90
5792;DHT22;2922;53.482;10.006;2022-08-19T06:02:13;18.40;99.90
5792;DHT22;2922;53.482;10.006;2022-08-19T06:04:39;18.50;99.90
5792;DHT22;2922;53.482;10.006;2022-08-19T06:07:08;18.50;99.90
5792;DHT22;2922;53.482;10.006;2022-08-19T06:09:33;18.50;99.90
5792;DHT22;2922;53.482;10.006;2022-08-19T06:11:59;18.50;99.90
5792;DHT22;2922;53.482;10.006;2022-08-19T06:14:35;18.50;99.90
5792;DHT22;2922;53.482;10.006;2022-08-19T06:17:01;18.50;99.90
5792;DHT22;2922;53.482;10.006;2022-08-19T06:19:29;18.50;99.90
5792;DHT22;2922;53.482;10.006;2022-08-19T06:21:56;18.50;99.90
5792;DHT22;2922;53.482;10.006;2022-08-19T06:24:24;18.50;99.90
5792;DHT22;2922;53.482;10.006;2022-08-19T06:26:52;18.60;99.90
5792;DHT22;2922;53.482;10.006;2022-08-19T06:29:20;18.60;99.90
5792;DHT22;2922;53.482;10.006;2022-08-19T06:31:49;18.70;99.90
5792;DHT22;2922;53.482;10.006;2022-08-19T06:34:15;18.70;99.90
5792;DHT22;2922;53.482;10.006;2022-08-19T06:36:45;18.70;99.90
5792;DHT22;2922;53.482;10.006;2022-08-19T06:39:13;18.80;99.90
5792;DHT22;2922;53.482;10.006;2022-08-19T06:41:45;18.80;99.90
5792;DHT22;2922;53.482;10.006;2022-08-19T06:44:12;18.80;99.90
5792;DHT22;2922;53.482;10.006;2022-08-19T06:46:39;18.90;99.90
5792;DHT22;2922;53.482;10.006;2022-08-19T06:49:05;18.90;99.90
5792;DHT22;2922;53.482;10.006;2022-08-19T06:51:34;18.90;99.90
5792;DHT22;2922;53.482;10.006;2022-08-19T06:54:00;18.80;99.90
5792;DHT22;2922;53.482;10.006;2022-08-19T06:56:29;18.80;99.90
5792;DHT22;2922;53.482;10.006;2022-08-19T06:58:57;18.80;99.90
5792;DHT22;2922;53.482;10.006;2022-08-19T07:01:23;18.80;99.90
5792;DHT22;2922;53.482;10.006;2022-08-19T07:03:49;18.80;99.90
5792;DHT22;2922;53.482;10.006;2022-08-19T07:06:16;18.70;99.90
5792;DHT22;2922;53.482;10.006;2022-08-19T07:08:44;18.80;99.90
5792;DHT22;2922;53.482;10.006;2022-08-19T07:11:12;18.70;99.90
5792;DHT22;2922;53.482;10.006;2022-08-19T07:13:39;18.70;99.90
5792;DHT22;2922;53.482;10.006;2022-08-19T07:16:11;18.70;99.90
5792;DHT22;2922;53.482;10.006;2022-08-19T07:18:37;18.80;99.90
5792;DHT22;2922;53.482;10.006;2022-08-19T07:21:09;18.90;99.90
5792;DHT22;2922;53.482;10.006;2022-08-19T07:23:35;19.00;99.90
5792;DHT22;2922;53.482;10.006;2022-08-19T07:26:09;19.10;99.90
5792;DHT22;2922;53.482;10.006;2022-08-19T07:28:35;19.10;99.90
5792;DHT22;2922;53.482;10.006;2022-08-19T07:31:05;19.10;99.90
5792;DHT22;2922;53.482;10.006;2022-08-19T07:33:31;19.00;99.90
5792;DHT22;2922;53.482;10.006;2022-08-19T07:35:58;19.00;99.90
5792;DHT22;2922;53.482;10.006;2022-08-19T07:38:24;19.00;99.90
5792;DHT22;2922;53.482;10.006;2022-08-19T07:40:49;19.00;99.90
5792;DHT22;2922;53.482;10.006;2022-08-19T07:43:16;19.10;99.90
5792;DHT22;2922;53.482;10.006;2022-08-19T07:45:45;19.10;99.90
5792;DHT22;2922;53.482;10.006;2022-08-19T07:48:12;19.20;99.90
5792;DHT22;2922;53.482;10.006;2022-08-19T07:50:38;19.10;99.90
5792;DHT22;2922;53.482;10.006;2022-08-19T07:53:03;19.10;99.90
5792;DHT22;2922;53.482;10.006;2022-08-19T07:55:29;19.10;99.90
5792;DHT22;2922;53.482;10.006;2022-08-19T07:57:55;19.10;99.90
5792;DHT22;2922;53.482;10.006;2022-08-19T08:00:20;19.20;99.90
5792;DHT22;2922;53.482;10.006;2022-08-19T08:02:46;19.20;99.90
5792;DHT22;2922;53.482;10.006;2022-08-19T08:05:12;19.20;99.90
5792;DHT22;2922;53.482;10.006;2022-08-19T08:07:56;19.20;99.90
5792;DHT22;2922;53.482;10.006;2022-08-19T08:10:40;19.20;99.90
5792;DHT22;2922;53.482;10.006;2022-08-19T08:13:06;19.20;99.90
5792;DHT22;2922;53.482;10.006;2022-08-19T08:15:31;19.20;99.90
5792;DHT22;2922;53.482;10.006;2022-08-19T08:17:57;19.20;99.90
5792;DHT22;2922;53.482;10.006;2022-08-19T08:20:23;19.10;99.90
5792;DHT22;2922;53.482;10.006;2022-08-19T08:22:49;19.10;99.90
5792;DHT22;2922;53.482;10.006;2022-08-19T08:25:34;19.10;99.90
5792;DHT22;2922;53.482;10.006;2022-08-19T08:28:01;19.20;99.90
5792;DHT22;2922;53.482;10.006;2022-08-19T08:30:29;19.20;99.90
5792;DHT22;2922;53.482;10.006;2022-08-19T08:32:55;19.20;99.90
5792;DHT22;2922;53.482;10.006;2022-08-19T08:35:23;19.30;99.90
5792;DHT22;2922;53.482;10.006;2022-08-19T08:37:50;19.20;99.90
5792;DHT22;2922;53.482;10.006;2022-08-19T08:43:05;19.20;99.90
5792;DHT22;2922;53.482;10.006;2022-08-19T08:45:34;19.20;99.90
5792;DHT22;2922;53.482;10.006;2022-08-19T08:48:11;19.20;99.90
5792;DHT22;2922;53.482;10.006;2022-08-19T08:50:43;19.20;99.90
5792;DHT22;2922;53.482;10.006;2022-08-19T08:53:17;19.20;99.90
5792;DHT22;2922;53.482;10.006;2022-08-19T08:55:45;19.40;99.90
5792;DHT22;2922;53.482;10.006;2022-08-19T08:58:19;19.30;99.90
5792;DHT22;2922;53.482;10.006;2022-08-19T09:00:47;19.40;99.90
5792;DHT22;2922;53.482;10.006;2022-08-19T09:03:20;19.50;99.90
5792;DHT22;2922;53.482;10.006;2022-08-19T09:06:14;19.40;99.90
5792;DHT22;2922;53.482;10.006;2022-08-19T09:16:50;19.50;99.90
5792;DHT22;2922;53.482;10.006;2022-08-19T09:19:16;19.50;99.90
5792;DHT22;2922;53.482;10.006;2022-08-19T09:21:43;19.60;99.90
5792;DHT22;2922;53.482;10.006;2022-08-19T09:24:08;19.60;99.90
5792;DHT22;2922;53.482;10.006;2022-08-19T09:26:34;19.70;99.90
5792;DHT22;2922;53.482;10.006;2022-08-19T09:29:00;19.70;99.90
5792;DHT22;2922;53.482;10.006;2022-08-19T09:31:29;19.80;99.90
5792;DHT22;2922;53.482;10.006;2022-08-19T09:33:55;19.80;99.90
5792;DHT22;2922;53.482;10.006;2022-08-19T09:36:25;19.70;99.90
5792;DHT22;2922;53.482;10.006;2022-08-19T09:38:52;19.70;99.90
5792;DHT22;2922;53.482;10.006;2022-08-19T09:41:21;19.80;99.90
5792;DHT22;2922;53.482;10.006;2022-08-19T09:43:49;19.80;99.90
5792;DHT22;2922;53.482;10.006;2022-08-19T09:46:18;19.80;99.90
5792;DHT22;2922;53.482;10.006;2022-08-19T09:48:47;19.90;99.90
5792;DHT22;2922;53.482;10.006;2022-08-19T09:51:15;19.90;99.90
5792;DHT22;2922;53.482;10.006;2022-08-19T09:53:43;19.90;99.90
5792;DHT22;2922;53.482;10.006;2022-08-19T09:56:09;20.00;99.90
5792;DHT22;2922;53.482;10.006;2022-08-19T09:58:35;20.00;99.90
5792;DHT22;2922;53.482;10.006;2022-08-19T10:01:02;19.90;99.90
5792;DHT22;2922;53.482;10.006;2022-08-19T10:03:29;19.90;99.90
5792;DHT22;2922;53.482;10.006;2022-08-19T10:05:55;19.90;99.90
5792;DHT22;2922;53.482;10.006;2022-08-19T10:08:24;20.00;99.90
5792;DHT22;2922;53.482;10.006;2022-08-19T10:10:51;20.10;99.90
5792;DHT22;2922;53.482;10.006;2022-08-19T10:13:21;20.10;99.90
5792;DHT22;2922;53.482;10.006;2022-08-19T10:15:51;20.20;99.90
5792;DHT22;2922;53.482;10.006;2022-08-19T10:18:19;20.20;99.90
5792;DHT22;2922;53.482;10.006;2022-08-19T10:20:45;20.30;99.90
5792;DHT22;2922;53.482;10.006;2022-08-19T10:23:12;20.40;99.90
5792;DHT22;2922;53.482;10.006;2022-08-19T10:25:38;20.40;99.90
5792;DHT22;2922;53.482;10.006;2022-08-19T10:28:04;20.40;99.90
5792;DHT22;2922;53.482;10.006;2022-08-19T10:30:31;20.50;99.90
5792;DHT22;2922;53.482;10.006;2022-08-19T10:32:57;20.60;99.90
5792;DHT22;2922;53.482;10.006;2022-08-19T10:35:23;20.70;99.90
5792;DHT22;2922;53.482;10.006;2022-08-19T10:37:55;20.70;99.90
5792;DHT22;2922;53.482;10.006;2022-08-19T10:40:25;20.70;99.90
5792;DHT22;2922;53.482;10.006;2022-08-19T10:42:52;20.70;99.90
5792;DHT22;2922;53.482;10.006;2022-08-19T10:45:17;20.80;99.90
5792;DHT22;2922;53.482;10.006;2022-08-19T10:47:43;20.70;99.90
5792;DHT22;2922;53.482;10.006;2022-08-19T10:50:09;20.60;99.90
5792;DHT22;2922;53.482;10.006;2022-08-19T10:52:53;20.60;99.90
5792;DHT22;2922;53.482;10.006;2022-08-19T10:55:21;20.70;99.90
5792;DHT22;2922;53.482;10.006;2022-08-19T10:58:11;20.70;99.90
5792;DHT22;2922;53.482;10.006;2022-08-19T11:00:37;20.60;99.90
5792;DHT22;2922;53.482;10.006;2022-08-19T11:03:03;20.50;99.90
5792;DHT22;2922;53.482;10.006;2022-08-19T11:05:28;20.50;99.90
5792;DHT22;2922;53.482;10.006;2022-08-19T11:07:55;20.60;99.90
5792;DHT22;2922;53.482;10.006;2022-08-19T11:10:21;20.70;99.90
5792;DHT22;2922;53.482;10.006;2022-08-19T11:12:49;20.60;99.90
5792;DHT22;2922;53.482;10.006;2022-08-19T11:15:19;20.60;99.90
5792;DHT22;2922;53.482;10.006;2022-08-19T11:17:45;20.60;99.90
5792;DHT22;2922;53.482;10.006;2022-08-19T11:20:12;20.60;99.90
5792;DHT22;2922;53.482;10.006;2022-08-19T11:22:38;20.70;99.90
5792;DHT22;2922;53.482;10.006;2022-08-19T11:25:05;20.80;99.90
5792;DHT22;2922;53.482;10.006;2022-08-19T11:27:31;20.90;99.90
5792;DHT22;2922;53.482;10.006;2022-08-19T11:29:57;20.90;99.90
5792;DHT22;2922;53.482;10.006;2022-08-19T11:32:23;20.90;99.90
5792;DHT22;2922;53.482;10.006;2022-08-19T11:34:48;20.90;99.90
5792;DHT22;2922;53.482;10.006;2022-08-19T11:37:15;21.00;99.90
5792;DHT22;2922;53.482;10.006;2022-08-19T11:39:41;21.10;99.90
5792;DHT22;2922;53.482;10.006;2022-08-19T11:42:06;21.10;99.90
5792;DHT22;2922;53.482;10.006;2022-08-19T11:44:52;21.30;99.90
5792;DHT22;2922;53.482;10.006;2022-08-19T11:47:18;21.60;99.90
5792;DHT22;2922;53.482;10.006;2022-08-19T11:49:46;21.50;99.90
5792;DHT22;2922;53.482;10.006;2022-08-19T11:52:11;21.50;99.90
5792;DHT22;2922;53.482;10.006;2022-08-19T11:54:37;21.50;99.90
5792;DHT22;2922;53.482;10.006;2022-08-19T11:57:03;21.40;99.90
5792;DHT22;2922;53.482;10.006;2022-08-19T11:59:29;21.50;99.90
5792;DHT22;2922;53.482;10.006;2022-08-19T12:01:55;21.60;99.90
5792;DHT22;2922;53.482;10.006;2022-08-19T12:04:21;21.50;99.90
5792;DHT22;2922;53.482;10.006;2022-08-19T12:06:48;21.50;99.90
5792;DHT22;2922;53.482;10.006;2022-08-19T12:09:15;21.50;99.90
5792;DHT22;2922;53.482;10.006;2022-08-19T12:11:43;21.60;99.90
5792;DHT22;2922;53.482;10.006;2022-08-19T12:14:14;21.60;99.90
5792;DHT22;2922;53.482;10.006;2022-08-19T12:16:41;21.60;99.90
5792;DHT22;2922;53.482;10.006;2022-08-19T12:19:07;21.60;99.90
5792;DHT22;2922;53.482;10.006;2022-08-19T12:21:34;21.60;99.90
5792;DHT22;2922;53.482;10.006;2022-08-19T12:24:01;21.40;99.90
5792;DHT22;2922;53.482;10.006;2022-08-19T12:26:28;21.50;99.90
5792;DHT22;2922;53.482;10.006;2022-08-19T12:28:54;21.60;99.90
5792;DHT22;2922;53.482;10.006;2022-08-19T12:31:19;21.80;99.90
5792;DHT22;2922;53.482;10.006;2022-08-19T12:33:46;21.90;99.90
5792;DHT22;2922;53.482;10.006;2022-08-19T12:36:14;22.00;99.90
5792;DHT22;2922;53.482;10.006;2022-08-19T12:38:41;22.10;99.90
5792;DHT22;2922;53.482;10.006;2022-08-19T12:41:10;22.10;99.90
5792;DHT22;2922;53.482;10.006;2022-08-19T12:43:37;22.20;99.90
5792;DHT22;2922;53.482;10.006;2022-08-19T12:46:04;22.60;99.90
5792;DHT22;2922;53.482;10.006;2022-08-19T12:48:31;22.80;99.90
5792;DHT22;2922;53.482;10.006;2022-08-19T12:50:56;23.00;99.90
5792;DHT22;2922;53.482;10.006;2022-08-19T12:53:23;23.10;99.90
5792;DHT22;2922;53.482;10.006;2022-08-19T12:55:55;23.30;99.90
5792;DHT22;2922;53.482;10.006;2022-08-19T12:58:23;23.40;99.90
5792;DHT22;2922;53.482;10.006;2022-08-19T13:00:49;23.50;99.90
5792;DHT22;2922;53.482;10.006;2022-08-19T13:03:15;23.60;99.90
5792;DHT22;2922;53.482;10.006;2022-08-19T13:05:41;23.90;99.90
5792;DHT22;2922;53.482;10.006;2022-08-19T13:08:08;24.30;99.90
5792;DHT22;2922;53.482;10.006;2022-08-19T13:10:35;24.40;99.90
5792;DHT22;2922;53.482;10.006;2022-08-19T13:13:04;24.40;99.90
5792;DHT22;2922;53.482;10.006;2022-08-19T13:15:33;24.40;99.90
5792;DHT22;2922;53.482;10.006;2022-08-19T13:17:59;24.40;99.90
5792;DHT22;2922;53.482;10.006;2022-08-19T13:20:26;24.30;99.90
5792;DHT22;2922;53.482;10.006;2022-08-19T13:22:51;24.30;99.90
5792;DHT22;2922;53.482;10.006;2022-08-19T13:25:18;24.30;99.90
5792;DHT22;2922;53.482;10.006;2022-08-19T13:27:46;24.00;99.90
5792;DHT22;2922;53.482;10.006;2022-08-19T13:30:14;23.90;99.90
5792;DHT22;2922;53.482;10.006;2022-08-19T13:32:59;23.80;99.90
5792;DHT22;2922;53.482;10.006;2022-08-19T13:38:14;23.70;99.90
5792;DHT22;2922;53.482;10.006;2022-08-19T13:40:41;23.70;99.90
5792;DHT22;2922;53.482;10.006;2022-08-19T13:43:08;23.60;99.90
5792;DHT22;2922;53.482;10.006;2022-08-19T13:45:35;23.70;99.90
5792;DHT22;2922;53.482;10.006;2022-08-19T13:48:03;23.70;99.90
5792;DHT22;2922;53.482;10.006;2022-08-19T13:50:37;23.60;99.90
5792;DHT22;2922;53.482;10.006;2022-08-19T13:53:03;23.60;99.90
5792;DHT22;2922;53.482;10.006;2022-08-19T13:55:29;23.50;99.90
5792;DHT22;2922;53.482;10.006;2022-08-19T13:57:57;23.40;99.90
5792;DHT22;2922;53.482;10.006;2022-08-19T14:00:25;23.30;99.90
5792;DHT22;2922;53.482;10.006;2022-08-19T14:02:53;23.30;99.90
5792;DHT22;2922;53.482;10.006;2022-08-19T14:05:20;23.40;99.90
5792;DHT22;2922;53.482;10.006;2022-08-19T14:07:47;23.30;99.90
5792;DHT22;2922;53.482;10.006;2022-08-19T14:10:15;23.30;99.90
5792;DHT22;2922;53.482;10.006;2022-08-19T14:12:41;23.20;99.90
5792;DHT22;2922;53.482;10.006;2022-08-19T14:15:08;23.10;99.90
5792;DHT22;2922;53.482;10.006;2022-08-19T14:17:34;23.10;99.90
5792;DHT22;2922;53.482;10.006;2022-08-19T14:20:05;23.10;99.90
5792;DHT22;2922;53.482;10.006;2022-08-19T14:22:36;23.00;99.90
5792;DHT22;2922;53.482;10.006;2022-08-19T14:25:02;23.00;99.90
5792;DHT22;2922;53.482;10.006;2022-08-19T14:27:28;23.10;99.90
5792;DHT22;2922;53.482;10.006;2022-08-19T14:29:53;23.10;99.90
5792;DHT22;2922;53.482;10.006;2022-08-19T14:32:20;23.10;99.90
5792;DHT22;2922;53.482;10.006;2022-08-19T14:34:46;23.20;99.90
5792;DHT22;2922;53.482;10.006;2022-08-19T14:37:13;23.20;99.90
5792;DHT22;2922;53.482;10.006;2022-08-19T14:39:40;23.30;99.90
5792;DHT22;2922;53.482;10.006;2022-08-19T14:42:10;23.40;99.90
5792;DHT22;2922;53.482;10.006;2022-08-19T14:44:36;23.40;99.90
5792;DHT22;2922;53.482;10.006;2022-08-19T14:47:01;23.50;99.90
5792;DHT22;2922;53.482;10.006;2022-08-19T14:49:27;23.60;99.90
5792;DHT22;2922;53.482;10.006;2022-08-19T14:51:53;23.80;99.90
5792;DHT22;2922;53.482;10.006;2022-08-19T14:54:18;23.90;99.90
5792;DHT22;2922;53.482;10.006;2022-08-19T14:56:45;24.00;99.90
5792;DHT22;2922;53.482;10.006;2022-08-19T14:59:10;23.90;99.90
5792;DHT22;2922;53.482;10.006;2022-08-19T15:01:36;23.90;99.90
5792;DHT22;2922;53.482;10.006;2022-08-19T15:04:02;24.00;99.90
5792;DHT22;2922;53.482;10.006;2022-08-19T15:06:27;24.00;99.90
5792;DHT22;2922;53.482;10.006;2022-08-19T15:08:53;23.90;99.90
5792;DHT22;2922;53.482;10.006;2022-08-19T15:11:22;24.00;99.90
5792;DHT22;2922;53.482;10.006;2022-08-19T15:13:49;24.00;99.90
5792;DHT22;2922;53.482;10.006;2022-08-19T15:16:15;24.10;99.90
5792;DHT22;2922;53.482;10.006;2022-08-19T15:18:42;24.20;99.90
5792;DHT22;2922;53.482;10.006;2022-08-19T15:21:11;24.10;99.90
5792;DHT22;2922;53.482;10.006;2022-08-19T15:23:42;24.10;99.90
5792;DHT22;2922;53.482;10.006;2022-08-19T15:26:07;24.00;99.90
5792;DHT22;2922;53.482;10.006;2022-08-19T15:28:34;24.00;99.90
5792;DHT22;2922;53.482;10.006;2022-08-19T15:31:00;24.00;99.90
5792;DHT22;2922;53.482;10.006;2022-08-19T15:33:26;24.00;99.90
5792;DHT22;2922;53.482;10.006;2022-08-19T15:35:52;24.00;99.90
5792;DHT22;2922;53.482;10.006;2022-08-19T15:38:19;24.00;99.90
5792;DHT22;2922;53.482;10.006;2022-08-19T15:40:47;24.00;99.90
5792;DHT22;2922;53.482;10.006;2022-08-19T15:43:15;24.20;99.90
5792;DHT22;2922;53.482;10.006;2022-08-19T15:45:43;24.10;99.90
5792;DHT22;2922;53.482;10.006;2022-08-19T15:48:09;24.20;99.90
5792;DHT22;2922;53.482;10.006;2022-08-19T15:50:34;24.10;99.90
5792;DHT22;2922;53.482;10.006;2022-08-19T15:53:03;24.20;99.90
5792;DHT22;2922;53.482;10.006;2022-08-19T15:55:32;24.20;99.90
5792;DHT22;2922;53.482;10.006;2022-08-19T15:58:07;24.30;99.90
5792;DHT22;2922;53.482;10.006;2022-08-19T16:00:51;24.40;99.90
5792;DHT22;2922;53.482;10.006;2022-08-19T16:03:35;24.40;99.90